Time;durP1;ratioP1;P1;durP2;ratioP2;P2;SDS_P1;SDS_P2;PMS_P1;PMS_P2;Temp;Humidity;BMP_temperature;BMP_pressure;BME280_temperature;BME280_humidity;BME280_pressure;Samples;Min_cycle;Max_cycle;Signal;HPM_P1;HPM_P2
2022/05/18 00:00:42;;;;;;;6.10;4.50;;;;;;;;;;4986067;28;20218;-84
2022/05/18 00:03:46;;;;;;;5.20;4.70;;;;;;;;;;4955261;28;20183;-84
2022/05/18 00:06:50;;;;;;;7.17;4.53;;;;;;;;;;4956319;28;20561;-85
2022/05/18 00:09:54;;;;;;;6.70;4.13;;;;;;;;;;4967102;28;20705;-84
2022/05/18 00:12:59;;;;;;;6.10;4.40;;;;;;;;;;4974848;28;20186;-84
2022/05/18 00:16:03;;;;;;;5.20;3.77;;;;;;;;;;4975472;28;20510;-84
2022/05/18 00:19:08;;;;;;;7.07;4.60;;;;;;;;;;4974084;28;20202;-84
2022/05/18 00:22:12;;;;;;;5.50;4.50;;;;;;;;;;4963840;28;20186;-84
2022/05/18 00:25:19;;;;;;;6.43;4.60;;;;;;;;;;4964108;28;20546;-84
2022/05/18 00:28:24;;;;;;;6.10;4.73;;;;;;;;;;4963986;28;20182;-84
2022/05/18 00:31:28;;;;;;;5.93;4.63;;;;;;;;;;4974293;28;20222;-85
2022/05/18 00:34:33;;;;;;;7.07;4.30;;;;;;;;;;4955315;28;20222;-84
2022/05/18 00:37:37;;;;;;;5.47;3.90;;;;;;;;;;4961532;28;20514;-83
2022/05/18 00:40:45;;;;;;;5.13;4.10;;;;;;;;;;4969017;28;20221;-83
2022/05/18 00:43:51;;;;;;;5.80;4.07;;;;;;;;;;4983418;28;20202;-83
2022/05/18 00:46:55;;;;;;;10.93;4.73;;;;;;;;;;4960199;28;20191;-83
2022/05/18 00:50:04;;;;;;;10.27;5.00;;;;;;;;;;4969739;28;20696;-84
2022/05/18 00:53:20;;;;;;;5.83;4.37;;;;;;;;;;4979743;28;20186;-83
2022/05/18 00:56:52;;;;;;;8.03;4.70;;;;;;;;;;5002164;28;20174;-84
2022/05/18 01:00:04;;;;;;;8.80;4.47;;;;;;;;;;4971630;28;20210;-83
2022/05/18 01:03:34;;;;;;;7.63;4.70;;;;;;;;;;4981541;28;20562;-83
2022/05/18 01:06:46;;;;;;;11.30;5.00;;;;;;;;;;4991420;28;20190;-83
2022/05/18 01:09:51;;;;;;;5.80;4.53;;;;;;;;;;4969732;28;20218;-83
2022/05/18 01:12:56;;;;;;;6.67;3.97;;;;;;;;;;4979772;28;20223;-83
2022/05/18 01:16:01;;;;;;;5.57;3.93;;;;;;;;;;4979408;28;20194;-83
2022/05/18 01:19:16;;;;;;;5.70;4.80;;;;;;;;;;4968451;28;20202;-83
2022/05/18 01:22:27;;;;;;;5.77;4.60;;;;;;;;;;4968464;28;20194;-83
2022/05/18 01:25:42;;;;;;;5.23;3.93;;;;;;;;;;4979993;28;20626;-83
2022/05/18 01:28:52;;;;;;;8.60;4.57;;;;;;;;;;4990092;28;20178;-83
2022/05/18 01:31:59;;;;;;;8.47;4.87;;;;;;;;;;4980965;28;20203;-83
2022/05/18 01:35:04;;;;;;;8.30;4.90;;;;;;;;;;4950132;28;20219;-83
2022/05/18 01:38:13;;;;;;;8.17;5.30;;;;;;;;;;4959581;28;20178;-83
2022/05/18 01:41:20;;;;;;;6.90;5.03;;;;;;;;;;4969380;28;20226;-83
2022/05/18 01:44:25;;;;;;;7.53;4.90;;;;;;;;;;4967015;28;20186;-83
2022/05/18 01:47:38;;;;;;;6.77;4.97;;;;;;;;;;4966478;28;20186;-83
2022/05/18 01:50:43;;;;;;;6.47;4.50;;;;;;;;;;4967405;28;20214;-83
2022/05/18 01:53:47;;;;;;;9.43;4.73;;;;;;;;;;4973553;28;20195;-83
2022/05/18 01:56:51;;;;;;;6.47;5.20;;;;;;;;;;4951598;28;20210;-83
2022/05/18 01:59:55;;;;;;;8.33;4.90;;;;;;;;;;4977974;28;20225;-84
2022/05/18 02:02:59;;;;;;;7.33;5.17;;;;;;;;;;4978443;28;20625;-83
2022/05/18 02:06:04;;;;;;;7.53;5.40;;;;;;;;;;4978083;28;20197;-83
2022/05/18 02:09:08;;;;;;;6.13;5.23;;;;;;;;;;4958767;28;20203;-83
2022/05/18 02:12:13;;;;;;;8.27;5.00;;;;;;;;;;4976511;28;20198;-84
2022/05/18 02:15:17;;;;;;;10.23;5.17;;;;;;;;;;4948742;28;20214;-84
2022/05/18 02:18:21;;;;;;;10.37;5.17;;;;;;;;;;4961675;28;20179;-84
2022/05/18 02:21:26;;;;;;;6.47;5.47;;;;;;;;;;4961026;28;20613;-83
2022/05/18 02:24:30;;;;;;;9.03;5.13;;;;;;;;;;4960470;28;20194;-83
2022/05/18 02:27:35;;;;;;;7.13;4.80;;;;;;;;;;4967449;28;20186;-83
2022/05/18 02:30:39;;;;;;;6.07;4.80;;;;;;;;;;4981702;28;20218;-83
2022/05/18 02:33:43;;;;;;;8.27;5.10;;;;;;;;;;4985670;28;20189;-84
2022/05/18 02:36:48;;;;;;;7.40;4.97;;;;;;;;;;4967792;28;20186;-83
2022/05/18 02:39:52;;;;;;;11.17;5.27;;;;;;;;;;4968243;28;20214;-83
2022/05/18 02:42:56;;;;;;;6.40;5.43;;;;;;;;;;4961304;28;20186;-83
2022/05/18 02:46:03;;;;;;;6.00;5.40;;;;;;;;;;4952539;28;20511;-82
2022/05/18 02:49:07;;;;;;;9.13;5.13;;;;;;;;;;4967901;28;20186;-83
2022/05/18 02:52:11;;;;;;;10.30;5.70;;;;;;;;;;4969192;28;20198;-83
2022/05/18 02:58:48;;;;;;;10.67;5.97;;;;;;;;;;4993724;28;20178;-83
2022/05/18 03:01:52;;;;;;;8.33;5.43;;;;;;;;;;4981932;28;20186;-83
2022/05/18 03:04:56;;;;;;;8.30;6.23;;;;;;;;;;4970136;28;20186;-83
2022/05/18 03:08:01;;;;;;;7.87;5.23;;;;;;;;;;4981781;28;20178;-83
2022/05/18 03:11:05;;;;;;;7.30;5.37;;;;;;;;;;4962538;28;20230;-83
2022/05/18 03:14:10;;;;;;;9.17;6.00;;;;;;;;;;4962420;28;20669;-83
2022/05/18 03:17:15;;;;;;;11.80;5.83;;;;;;;;;;4969844;28;20558;-83
2022/05/18 03:23:43;;;;;;;8.90;5.77;;;;;;;;;;4980296;28;20202;-83
2022/05/18 03:26:47;;;;;;;7.87;5.90;;;;;;;;;;4968291;28;20182;-85
2022/05/18 03:29:51;;;;;;;8.70;6.20;;;;;;;;;;4961455;28;20566;-82
2022/05/18 03:32:55;;;;;;;9.57;5.40;;;;;;;;;;4951811;28;20194;-83
2022/05/18 03:36:00;;;;;;;7.97;5.40;;;;;;;;;;4986660;28;20210;-83
2022/05/18 03:39:06;;;;;;;8.60;5.23;;;;;;;;;;4981730;28;20190;-83
2022/05/18 03:42:10;;;;;;;7.23;5.47;;;;;;;;;;4971019;28;20182;-83
2022/05/18 03:45:14;;;;;;;7.63;5.40;;;;;;;;;;4971777;28;20174;-83
2022/05/18 03:48:19;;;;;;;14.30;5.70;;;;;;;;;;4982100;28;20201;-82
2022/05/18 03:51:23;;;;;;;8.30;5.80;;;;;;;;;;4993971;28;20213;-82
2022/05/18 03:54:27;;;;;;;13.27;6.13;;;;;;;;;;4958770;28;20194;-83
2022/05/18 03:57:31;;;;;;;10.90;6.47;;;;;;;;;;4970179;28;20182;-82
2022/05/18 04:00:37;;;;;;;8.47;5.90;;;;;;;;;;4961401;28;20222;-82
2022/05/18 04:03:44;;;;;;;8.80;6.00;;;;;;;;;;4971071;28;20191;-82
2022/05/18 04:06:48;;;;;;;9.37;5.77;;;;;;;;;;4955202;28;20186;-82
2022/05/18 04:09:52;;;;;;;9.40;6.23;;;;;;;;;;4970186;28;20222;-83
2022/05/18 04:12:57;;;;;;;9.13;5.93;;;;;;;;;;4969460;28;20186;-83
2022/05/18 04:16:01;;;;;;;8.93;6.50;;;;;;;;;;4970340;28;20217;-82
2022/05/18 04:19:05;;;;;;;7.50;6.20;;;;;;;;;;4980621;28;20206;-83
2022/05/18 04:22:09;;;;;;;8.93;6.40;;;;;;;;;;4971841;28;20198;-82
2022/05/18 04:25:18;;;;;;;9.53;6.23;;;;;;;;;;4969522;28;20198;-83
2022/05/18 04:28:22;;;;;;;9.90;6.33;;;;;;;;;;4979246;28;20190;-82
2022/05/18 04:31:26;;;;;;;10.30;5.33;;;;;;;;;;4970639;28;20222;-83
2022/05/18 04:34:31;;;;;;;11.47;5.70;;;;;;;;;;4970386;28;20174;-82
2022/05/18 04:37:36;;;;;;;10.67;6.30;;;;;;;;;;4969606;28;20536;-82
2022/05/18 04:40:41;;;;;;;9.00;6.17;;;;;;;;;;4969800;28;20222;-83
2022/05/18 04:43:45;;;;;;;8.80;6.20;;;;;;;;;;4979585;28;20182;-83
2022/05/18 04:46:49;;;;;;;7.17;5.80;;;;;;;;;;4984111;28;20187;-83
2022/05/18 04:49:55;;;;;;;10.10;7.10;;;;;;;;;;4979560;28;20554;-82
2022/05/18 04:52:59;;;;;;;10.43;7.20;;;;;;;;;;4978723;28;20190;-82
2022/05/18 04:56:04;;;;;;;13.00;6.03;;;;;;;;;;4969105;28;20209;-83
2022/05/18 04:59:09;;;;;;;15.40;6.70;;;;;;;;;;4956642;28;20190;-82
2022/05/18 05:02:12;;;;;;;12.07;7.67;;;;;;;;;;4985428;28;20187;-83
2022/05/18 05:05:16;;;;;;;9.17;7.60;;;;;;;;;;4971674;28;20194;-83
2022/05/18 05:08:21;;;;;;;13.90;8.00;;;;;;;;;;4972411;28;20178;-83
2022/05/18 05:11:25;;;;;;;9.13;7.60;;;;;;;;;;4994206;28;20565;-82
2022/05/18 05:14:29;;;;;;;10.93;8.17;;;;;;;;;;4960826;28;20194;-83
2022/05/18 05:17:33;;;;;;;9.77;8.60;;;;;;;;;;4963638;28;20187;-83
2022/05/18 05:20:38;;;;;;;14.03;8.57;;;;;;;;;;4963893;28;20230;-82
2022/05/18 05:23:42;;;;;;;10.33;8.90;;;;;;;;;;5001460;28;20641;-81
2022/05/18 05:26:46;;;;;;;13.67;9.27;;;;;;;;;;4964761;28;20202;-82
2022/05/18 05:29:50;;;;;;;10.13;8.90;;;;;;;;;;4975098;28;20225;-82
2022/05/18 05:32:55;;;;;;;9.67;8.67;;;;;;;;;;4959408;28;20186;-82
2022/05/18 05:35:59;;;;;;;14.63;9.77;;;;;;;;;;4965100;28;20559;-82
2022/05/18 05:39:03;;;;;;;11.27;8.37;;;;;;;;;;4974732;28;20191;-82
2022/05/18 05:42:08;;;;;;;13.77;9.57;;;;;;;;;;4952159;28;20198;-83
2022/05/18 05:45:13;;;;;;;17.73;9.43;;;;;;;;;;4960612;28;20201;-82
2022/05/18 05:48:17;;;;;;;10.03;8.93;;;;;;;;;;4964919;28;20194;-82
2022/05/18 05:51:23;;;;;;;11.00;8.60;;;;;;;;;;4957356;28;20218;-82
2022/05/18 05:54:27;;;;;;;15.27;9.00;;;;;;;;;;4970937;28;20664;-82
2022/05/18 05:57:31;;;;;;;9.57;8.57;;;;;;;;;;4960739;28;20179;-83
2022/05/18 06:00:36;;;;;;;10.63;8.33;;;;;;;;;;4960801;28;20214;-82
2022/05/18 06:03:41;;;;;;;9.50;8.47;;;;;;;;;;4971265;28;20183;-82
2022/05/18 06:06:45;;;;;;;16.70;9.30;;;;;;;;;;4941258;28;20179;-82
2022/05/18 06:09:49;;;;;;;9.20;7.63;;;;;;;;;;4956302;28;20699;-82
2022/05/18 06:12:53;;;;;;;8.93;7.90;;;;;;;;;;4971601;28;20182;-82
2022/05/18 06:15:58;;;;;;;8.43;7.63;;;;;;;;;;4981784;28;20218;-82
2022/05/18 06:19:02;;;;;;;10.50;7.83;;;;;;;;;;4981814;28;20507;-82
2022/05/18 06:22:06;;;;;;;12.30;7.70;;;;;;;;;;4985397;28;20186;-82
2022/05/18 06:25:13;;;;;;;10.60;8.17;;;;;;;;;;4978231;28;20538;-82
2022/05/18 06:28:18;;;;;;;10.23;8.10;;;;;;;;;;4970838;28;20202;-82
2022/05/18 06:31:22;;;;;;;8.17;7.20;;;;;;;;;;4982027;28;20221;-82
2022/05/18 06:34:26;;;;;;;8.90;7.07;;;;;;;;;;4970890;28;20198;-82
2022/05/18 06:37:30;;;;;;;10.63;7.13;;;;;;;;;;4970669;28;20221;-83
2022/05/18 06:44:02;;;;;;;9.27;6.80;;;;;;;;;;4970711;28;20179;-83
2022/05/18 06:47:06;;;;;;;12.47;7.40;;;;;;;;;;4970832;28;20175;-82
2022/05/18 06:50:10;;;;;;;8.87;6.93;;;;;;;;;;4940667;28;20219;-82
2022/05/18 06:53:15;;;;;;;7.63;6.37;;;;;;;;;;4974503;28;20179;-82
2022/05/18 06:56:21;;;;;;;7.47;6.77;;;;;;;;;;4951492;28;20214;-82
2022/05/18 06:59:25;;;;;;;11.00;7.00;;;;;;;;;;4947009;28;20686;-83
2022/05/18 07:02:29;;;;;;;9.70;7.03;;;;;;;;;;4962642;28;20634;-83
2022/05/18 07:05:33;;;;;;;9.70;6.57;;;;;;;;;;4951862;28;20195;-83
2022/05/18 07:08:38;;;;;;;10.97;7.20;;;;;;;;;;4966377;28;20190;-82
2022/05/18 07:11:45;;;;;;;10.37;6.53;;;;;;;;;;4971188;28;20222;-82
2022/05/18 07:14:49;;;;;;;7.50;6.43;;;;;;;;;;4969680;28;20182;-83
2022/05/18 07:17:53;;;;;;;7.47;6.40;;;;;;;;;;4959630;28;20183;-83
2022/05/18 07:20:58;;;;;;;8.37;6.50;;;;;;;;;;4970423;28;20225;-83
2022/05/18 07:24:03;;;;;;;7.53;6.57;;;;;;;;;;4977577;28;20194;-82
2022/05/18 07:27:08;;;;;;;7.80;6.63;;;;;;;;;;4957251;28;20202;-83
2022/05/18 07:30:13;;;;;;;10.20;6.90;;;;;;;;;;4954714;28;20574;-82
2022/05/18 07:33:17;;;;;;;8.10;6.53;;;;;;;;;;4965978;28;20182;-83
2022/05/18 07:36:22;;;;;;;7.30;6.23;;;;;;;;;;4977393;28;20211;-83
2022/05/18 07:39:28;;;;;;;7.60;6.80;;;;;;;;;;4965700;28;20526;-83
2022/05/18 07:42:33;;;;;;;7.37;6.50;;;;;;;;;;4955181;28;20183;-82
2022/05/18 07:45:37;;;;;;;9.47;6.37;;;;;;;;;;4959259;28;20186;-83
2022/05/18 07:48:41;;;;;;;7.83;6.00;;;;;;;;;;4995960;28;20190;-83
2022/05/18 07:51:46;;;;;;;7.23;6.43;;;;;;;;;;4996118;28;20221;-83
2022/05/18 07:54:51;;;;;;;8.10;6.40;;;;;;;;;;4972873;28;20194;-83
2022/05/18 07:57:55;;;;;;;7.57;5.57;;;;;;;;;;4984822;28;20214;-83
2022/05/18 08:00:59;;;;;;;7.57;5.53;;;;;;;;;;4962559;28;20218;-83
2022/05/18 08:04:04;;;;;;;6.53;5.83;;;;;;;;;;4983491;28;20663;-83
2022/05/18 08:07:09;;;;;;;6.10;4.87;;;;;;;;;;4974178;28;20184;-84
2022/05/18 08:17:00;;;;;;;6.95;5.07;;;;;;;;;;4973069;28;20215;-83
2022/05/18 08:20:06;;;;;;;5.55;4.53;;;;;;;;;;4983530;28;20237;-84
2022/05/18 08:23:11;;;;;;;5.45;4.80;;;;;;;;;;4962361;28;20195;-84
2022/05/18 08:26:15;;;;;;;5.60;4.10;;;;;;;;;;4972817;28;20198;-84
2022/05/18 08:29:22;;;;;;;5.90;4.65;;;;;;;;;;4964759;28;20206;-83
2022/05/18 08:32:26;;;;;;;6.82;4.70;;;;;;;;;;4954013;28;20186;-83
2022/05/18 08:35:30;;;;;;;5.30;4.32;;;;;;;;;;4964986;28;20181;-83
2022/05/18 08:38:35;;;;;;;6.75;4.47;;;;;;;;;;4946281;28;20183;-84
2022/05/18 08:41:45;;;;;;;9.23;4.30;;;;;;;;;;4972166;28;20219;-83
2022/05/18 08:44:50;;;;;;;6.50;4.43;;;;;;;;;;4972204;28;20190;-84
2022/05/18 08:48:20;;;;;;;4.90;4.45;;;;;;;;;;4972912;28;20193;-84
2022/05/18 08:51:37;;;;;;;4.22;3.72;;;;;;;;;;4961122;28;20229;-84
2022/05/18 08:55:02;;;;;;;4.45;3.50;;;;;;;;;;4972058;28;20652;-84
2022/05/18 08:58:29;;;;;;;6.47;3.33;;;;;;;;;;4972523;28;20213;-84
2022/05/18 09:01:42;;;;;;;5.30;3.55;;;;;;;;;;4983400;28;20220;-84
2022/05/18 09:04:55;;;;;;;4.32;3.10;;;;;;;;;;4975256;28;20199;-84
2022/05/18 09:08:18;;;;;;;5.82;3.35;;;;;;;;;;4972181;28;20186;-84
2022/05/18 09:11:23;;;;;;;4.78;3.05;;;;;;;;;;4953187;28;20712;-84
2022/05/18 09:14:32;;;;;;;4.82;3.28;;;;;;;;;;4953297;28;20190;-84
2022/05/18 09:17:43;;;;;;;4.20;2.97;;;;;;;;;;4963575;28;20549;-84
2022/05/18 09:20:54;;;;;;;5.63;3.42;;;;;;;;;;4960596;28;20226;-85
2022/05/18 09:24:04;;;;;;;5.30;3.00;;;;;;;;;;4964121;28;20187;-84
2022/05/18 09:27:23;;;;;;;8.05;2.88;;;;;;;;;;4952917;28;20635;-85
2022/05/18 09:30:40;;;;;;;6.30;3.13;;;;;;;;;;4945384;28;20218;-84
2022/05/18 09:34:20;;;;;;;5.25;2.97;;;;;;;;;;4974362;28;20199;-84
2022/05/18 09:37:30;;;;;;;4.55;3.00;;;;;;;;;;4963841;28;20670;-84
2022/05/18 09:40:47;;;;;;;5.10;2.70;;;;;;;;;;4977031;28;20551;-87
2022/05/18 09:44:13;;;;;;;4.50;2.67;;;;;;;;;;4960556;28;20198;-86
2022/05/18 09:47:21;;;;;;;4.38;2.35;;;;;;;;;;4962259;28;20527;-85
2022/05/18 09:50:26;;;;;;;5.07;2.30;;;;;;;;;;4971637;28;20218;-85
2022/05/18 09:53:30;;;;;;;3.33;2.40;;;;;;;;;;4969702;28;20191;-84
2022/05/18 09:56:44;;;;;;;4.47;2.78;;;;;;;;;;4961135;28;20210;-84
2022/05/18 09:59:58;;;;;;;4.80;2.80;;;;;;;;;;4972114;28;20213;-85
2022/05/18 10:10:15;;;;;;;3.83;2.20;;;;;;;;;;4959825;28;20222;-87
2022/05/18 10:13:21;;;;;;;2.80;2.00;;;;;;;;;;4982151;28;20190;-85
2022/05/18 10:16:40;;;;;;;4.38;2.05;;;;;;;;;;4959040;28;20637;-86
2022/05/18 10:20:05;;;;;;;2.80;1.92;;;;;;;;;;4970940;28;20230;-83
2022/05/18 10:23:33;;;;;;;2.55;1.98;;;;;;;;;;5015242;23;20232;-84
2022/05/18 10:26:39;;;;;;;5.97;2.20;;;;;;;;;;5037952;28;20188;-86
2022/05/18 10:29:51;;;;;;;2.15;1.95;;;;;;;;;;5023040;28;20185;-83
2022/05/18 10:33:21;;;;;;;3.50;2.17;;;;;;;;;;4999199;28;20217;-83
2022/05/18 10:36:29;;;;;;;4.43;2.17;;;;;;;;;;5012658;28;20514;-83
2022/05/18 10:39:44;;;;;;;3.00;1.90;;;;;;;;;;4999461;28;20632;-83
2022/05/18 10:42:54;;;;;;;2.35;1.80;;;;;;;;;;5025190;28;20686;-83
2022/05/18 10:46:02;;;;;;;2.83;2.10;;;;;;;;;;5031175;28;20184;-83
2022/05/18 10:49:36;;;;;;;4.43;1.95;;;;;;;;;;5020337;28;20177;-82
2022/05/18 10:52:39;;;;;;;3.47;2.15;;;;;;;;;;5020744;28;20185;-83
2022/05/18 10:55:56;;;;;;;3.25;1.90;;;;;;;;;;5031788;28;20189;-84
2022/05/18 10:59:23;;;;;;;3.28;1.70;;;;;;;;;;5021288;28;20503;-82
2022/05/18 11:02:50;;;;;;;4.10;2.03;;;;;;;;;;5018922;28;20181;-83
2022/05/18 11:06:02;;;;;;;4.47;2.10;;;;;;;;;;5034978;28;20185;-83
2022/05/18 11:09:19;;;;;;;5.72;2.17;;;;;;;;;;5033804;28;20192;-84
2022/05/18 11:12:32;;;;;;;3.45;2.00;;;;;;;;;;5045186;28;20185;-84
2022/05/18 11:16:07;;;;;;;2.55;2.08;;;;;;;;;;5010979;28;20192;-87
2022/05/18 11:19:35;;;;;;;2.92;2.28;;;;;;;;;;5023133;28;20184;-85
2022/05/18 11:23:12;;;;;;;3.05;1.95;;;;;;;;;;5001666;28;20204;-85
2022/05/18 11:26:28;;;;;;;4.53;2.25;;;;;;;;;;5006223;28;20176;-86
2022/05/18 11:29:57;;;;;;;4.00;1.98;;;;;;;;;;5032968;28;20188;-86
2022/05/18 11:33:27;;;;;;;3.72;1.95;;;;;;;;;;5021856;28;20917;-85
2022/05/18 11:36:52;;;;;;;3.83;2.00;;;;;;;;;;5023755;28;20185;-85
2022/05/18 11:40:34;;;;;;;2.92;1.90;;;;;;;;;;5023212;28;20192;-85
2022/05/18 11:43:50;;;;;;;7.47;2.13;;;;;;;;;;5023603;28;20212;-85
2022/05/18 11:47:18;;;;;;;3.95;1.80;;;;;;;;;;5035280;28;20192;-86
2022/05/18 11:50:32;;;;;;;3.80;1.90;;;;;;;;;;5022163;28;20180;-86
2022/05/18 11:53:56;;;;;;;3.40;1.92;;;;;;;;;;5032424;28;20223;-85
2022/05/18 11:57:16;;;;;;;4.25;1.70;;;;;;;;;;5030058;28;20193;-85
2022/05/18 12:00:56;;;;;;;8.07;2.03;;;;;;;;;;5033262;28;20188;-85
2022/05/18 12:04:41;;;;;;;3.78;1.55;;;;;;;;;;5039557;28;20213;-84
2022/05/18 12:08:24;;;;;;;3.55;1.85;;;;;;;;;;5021088;28;20181;-83
2022/05/18 12:11:49;;;;;;;2.25;1.50;;;;;;;;;;5033298;28;20177;-84
2022/05/18 12:15:05;;;;;;;2.47;1.77;;;;;;;;;;5019838;28;20177;-83
2022/05/18 12:18:30;;;;;;;3.35;2.05;;;;;;;;;;5021135;28;20212;-83
2022/05/18 12:21:40;;;;;;;4.45;1.70;;;;;;;;;;5021410;28;20181;-84
2022/05/18 12:24:48;;;;;;;2.53;1.60;;;;;;;;;;5032134;28;20224;-84
2022/05/18 12:27:56;;;;;;;4.53;2.28;;;;;;;;;;5031909;28;20528;-83
2022/05/18 12:31:01;;;;;;;5.15;2.22;;;;;;;;;;5043537;28;20185;-83
2022/05/18 12:34:21;;;;;;;5.15;1.65;;;;;;;;;;5043525;28;20212;-84
2022/05/18 12:37:31;;;;;;;2.58;1.70;;;;;;;;;;5032201;28;20544;-84
2022/05/18 12:41:00;;;;;;;2.28;1.45;;;;;;;;;;5032128;28;20181;-83
2022/05/18 12:44:41;;;;;;;6.22;1.60;;;;;;;;;;5020930;28;20677;-83
2022/05/18 12:47:48;;;;;;;7.82;1.65;;;;;;;;;;5030108;28;20199;-83
2022/05/18 12:50:55;;;;;;;5.50;1.90;;;;;;;;;;5043397;28;20179;-83
2022/05/18 12:54:13;;;;;;;5.95;1.65;;;;;;;;;;5042965;28;20282;-83
2022/05/18 12:57:26;;;;;;;1.65;1.20;;;;;;;;;;5043130;28;20183;-83
2022/05/18 13:00:30;;;;;;;2.10;1.52;;;;;;;;;;5043505;28;20185;-83
2022/05/18 13:03:57;;;;;;;2.70;1.33;;;;;;;;;;5042733;28;20689;-83
2022/05/18 13:07:25;;;;;;;4.22;1.63;;;;;;;;;;5031800;28;20179;-83
2022/05/18 13:10:34;;;;;;;3.45;1.58;;;;;;;;;;5031578;28;20187;-83
2022/05/18 13:14:06;;;;;;;4.63;1.92;;;;;;;;;;5042675;28;20214;-83
2022/05/18 13:17:13;;;;;;;2.83;1.60;;;;;;;;;;5042494;28;20198;-83
2022/05/18 13:20:26;;;;;;;3.92;1.95;;;;;;;;;;5020349;28;20188;-83
2022/05/18 13:23:33;;;;;;;6.65;2.42;;;;;;;;;;5042174;28;20223;-83
2022/05/18 13:26:47;;;;;;;4.30;1.55;;;;;;;;;;5030294;28;20235;-84
2022/05/18 13:29:55;;;;;;;4.38;1.63;;;;;;;;;;5030615;28;20199;-84
2022/05/18 13:33:02;;;;;;;2.00;1.80;;;;;;;;;;5020261;28;20212;-83
2022/05/18 13:36:06;;;;;;;4.65;2.00;;;;;;;;;;5019761;28;20180;-83
2022/05/18 13:39:11;;;;;;;3.38;1.55;;;;;;;;;;5041706;28;20209;-84
2022/05/18 13:42:22;;;;;;;4.03;2.05;;;;;;;;;;5026076;28;20189;-83
2022/05/18 13:45:29;;;;;;;6.80;1.48;;;;;;;;;;5045896;28;20197;-83
2022/05/18 13:48:33;;;;;;;5.75;1.50;;;;;;;;;;5025958;28;20525;-83
2022/05/18 13:51:41;;;;;;;2.53;1.70;;;;;;;;;;5023372;28;20188;-84
2022/05/18 13:54:48;;;;;;;2.35;1.30;;;;;;;;;;5035278;28;20212;-85
2022/05/18 13:57:58;;;;;;;3.55;1.60;;;;;;;;;;5021586;28;20212;-86
2022/05/18 14:01:07;;;;;;;2.05;1.50;;;;;;;;;;5018936;28;20189;-86
2022/05/18 14:04:15;;;;;;;2.75;1.70;;;;;;;;;;5041511;28;20224;-86
2022/05/18 14:07:22;;;;;;;4.68;1.50;;;;;;;;;;5018832;28;20193;-86
2022/05/18 14:10:28;;;;;;;9.80;1.90;;;;;;;;;;5018091;28;20189;-85
2022/05/18 14:13:35;;;;;;;5.88;1.98;;;;;;;;;;5021972;28;20255;-86
2022/05/18 14:16:56;;;;;;;3.40;1.92;;;;;;;;;;5033683;28;20196;-85
2022/05/18 14:20:06;;;;;;;3.35;1.70;;;;;;;;;;5033053;28;20193;-86
2022/05/18 14:23:19;;;;;;;2.92;1.80;;;;;;;;;;5041260;28;20228;-86
2022/05/18 14:26:27;;;;;;;3.25;1.92;;;;;;;;;;5010323;28;20639;-86
2022/05/18 14:29:42;;;;;;;2.67;1.85;;;;;;;;;;5011060;28;20201;-86
2022/05/18 14:32:50;;;;;;;6.20;2.13;;;;;;;;;;5011771;28;20213;-85
2022/05/18 14:35:55;;;;;;;2.97;1.52;;;;;;;;;;5034921;28;20176;-85
2022/05/18 14:39:06;;;;;;;2.50;1.48;;;;;;;;;;5011974;28;20214;-86
2022/05/18 14:42:10;;;;;;;3.50;1.50;;;;;;;;;;5025997;28;20198;-85
2022/05/18 14:45:25;;;;;;;4.88;1.98;;;;;;;;;;5011421;28;20203;-86
2022/05/18 14:48:40;;;;;;;5.65;1.80;;;;;;;;;;5034117;28;20631;-85
2022/05/18 14:51:47;;;;;;;3.95;1.70;;;;;;;;;;5019363;28;20195;-85
2022/05/18 14:54:52;;;;;;;3.08;1.70;;;;;;;;;;5019567;28;20176;-86
2022/05/18 14:57:58;;;;;;;4.35;1.67;;;;;;;;;;5030761;28;20519;-85
2022/05/18 15:01:05;;;;;;;5.47;2.13;;;;;;;;;;5030462;28;20182;-85
2022/05/18 15:04:15;;;;;;;3.08;1.55;;;;;;;;;;5030277;28;20216;-85
2022/05/18 15:07:25;;;;;;;3.35;1.75;;;;;;;;;;5019538;28;20198;-85
2022/05/18 15:10:35;;;;;;;3.83;1.70;;;;;;;;;;5018761;28;20190;-85
2022/05/18 15:13:48;;;;;;;3.40;1.70;;;;;;;;;;5030557;28;20569;-85
2022/05/18 15:16:54;;;;;;;2.85;1.70;;;;;;;;;;5020474;28;20189;-84
2022/05/18 15:20:35;;;;;;;4.85;1.35;;;;;;;;;;5030493;28;20227;-85
2022/05/18 15:23:55;;;;;;;3.45;1.60;;;;;;;;;;5030515;28;20234;-85
2022/05/18 15:27:01;;;;;;;5.65;1.83;;;;;;;;;;5041391;28;20191;-84
2022/05/18 15:30:07;;;;;;;3.95;1.95;;;;;;;;;;5020349;28;20524;-85
2022/05/18 15:33:12;;;;;;;6.10;1.60;;;;;;;;;;5041847;28;20225;-85
2022/05/18 15:36:17;;;;;;;1.85;1.38;;;;;;;;;;5030908;28;20195;-85
2022/05/18 15:39:21;;;;;;;3.40;1.73;;;;;;;;;;5018845;28;20216;-86
2022/05/18 15:42:26;;;;;;;3.92;1.73;;;;;;;;;;4999724;28;20182;-84
2022/05/18 15:45:31;;;;;;;4.38;2.10;;;;;;;;;;5035292;28;20198;-84
2022/05/18 15:48:37;;;;;;;4.50;2.22;;;;;;;;;;5019328;28;20170;-85
2022/05/18 15:51:41;;;;;;;6.57;2.35;;;;;;;;;;5045194;28;20554;-84
2022/05/18 15:54:56;;;;;;;3.70;2.35;;;;;;;;;;5023445;28;20220;-84
2022/05/18 15:58:00;;;;;;;3.80;1.77;;;;;;;;;;5035247;28;20195;-86
2022/05/18 16:01:04;;;;;;;3.45;1.90;;;;;;;;;;5022233;28;20186;-85
2022/05/18 16:04:08;;;;;;;6.43;2.05;;;;;;;;;;5033832;28;20207;-85
2022/05/18 16:07:12;;;;;;;5.03;2.20;;;;;;;;;;5045388;28;20184;-86
2022/05/18 16:10:20;;;;;;;2.60;1.83;;;;;;;;;;5034123;28;20536;-85
2022/05/18 16:13:32;;;;;;;4.30;2.03;;;;;;;;;;5023942;28;20216;-85
2022/05/18 16:16:36;;;;;;;3.90;2.30;;;;;;;;;;5034548;28;20189;-86
2022/05/18 16:19:40;;;;;;;4.43;2.00;;;;;;;;;;5022240;28;20213;-84
2022/05/18 16:22:46;;;;;;;5.87;2.60;;;;;;;;;;5010584;28;21160;-85
2022/05/18 16:25:51;;;;;;;3.03;2.43;;;;;;;;;;5035602;28;20189;-83
2022/05/18 16:28:56;;;;;;;8.37;2.33;;;;;;;;;;5014413;28;20196;-84
2022/05/18 16:32:00;;;;;;;28.47;3.83;;;;;;;;;;5020462;28;20187;-83
2022/05/18 16:35:05;;;;;;;5.43;2.33;;;;;;;;;;5058085;28;20201;-83
2022/05/18 16:38:09;;;;;;;3.87;2.43;;;;;;;;;;5023114;28;20192;-84
2022/05/18 16:41:19;;;;;;;6.07;2.50;;;;;;;;;;5022786;28;20191;-83
2022/05/18 16:44:27;;;;;;;4.27;1.67;;;;;;;;;;5033396;28;20685;-83
2022/05/18 16:47:31;;;;;;;3.93;2.00;;;;;;;;;;5034699;28;20197;-84
2022/05/18 16:50:35;;;;;;;3.20;2.30;;;;;;;;;;5013806;28;20185;-84
2022/05/18 16:53:39;;;;;;;11.97;2.93;;;;;;;;;;5034231;28;20213;-84
2022/05/18 16:56:43;;;;;;;5.93;2.30;;;;;;;;;;5014482;28;20529;-84
2022/05/18 16:59:48;;;;;;;2.40;1.77;;;;;;;;;;5031123;28;20208;-83
2022/05/18 17:02:52;;;;;;;2.10;1.60;;;;;;;;;;5013564;28;20214;-84
2022/05/18 17:05:57;;;;;;;4.23;2.00;;;;;;;;;;5023207;28;20182;-84
2022/05/18 17:09:01;;;;;;;3.53;2.30;;;;;;;;;;5033946;28;20184;-85
2022/05/18 17:12:06;;;;;;;3.50;1.60;;;;;;;;;;5035198;28;20181;-84
2022/05/18 17:15:15;;;;;;;2.20;1.50;;;;;;;;;;5038696;28;20196;-84
2022/05/18 17:18:19;;;;;;;2.17;1.50;;;;;;;;;;5038133;28;20194;-84
2022/05/18 17:21:26;;;;;;;3.33;1.77;;;;;;;;;;5018418;28;20197;-84
2022/05/18 17:24:30;;;;;;;1.93;1.30;;;;;;;;;;5041007;28;20220;-84
2022/05/18 17:27:34;;;;;;;3.23;1.77;;;;;;;;;;5036243;28;20192;-86
2022/05/18 17:30:39;;;;;;;2.73;1.57;;;;;;;;;;5030856;28;20180;-83
2022/05/18 17:33:44;;;;;;;4.37;1.50;;;;;;;;;;5020206;28;20224;-83
2022/05/18 17:36:48;;;;;;;4.80;1.50;;;;;;;;;;5031846;28;20548;-83
2022/05/18 17:39:52;;;;;;;3.80;2.03;;;;;;;;;;5011417;28;20209;-83
2022/05/18 17:42:57;;;;;;;5.33;1.73;;;;;;;;;;5012598;28;20560;-84
2022/05/18 17:46:01;;;;;;;5.47;1.30;;;;;;;;;;5029361;28;20180;-84
2022/05/18 17:49:05;;;;;;;2.40;1.40;;;;;;;;;;5031502;28;20184;-83
2022/05/18 17:52:10;;;;;;;2.20;1.70;;;;;;;;;;5012305;28;20197;-83
2022/05/18 17:55:15;;;;;;;4.77;1.60;;;;;;;;;;5020115;28;20196;-84
2022/05/18 17:58:19;;;;;;;2.73;1.50;;;;;;;;;;5030867;28;20192;-84
2022/05/18 18:01:23;;;;;;;3.60;1.50;;;;;;;;;;5033714;28;20173;-83
2022/05/18 18:04:28;;;;;;;3.47;1.63;;;;;;;;;;5034004;28;20219;-83
2022/05/18 18:07:33;;;;;;;3.07;1.67;;;;;;;;;;5045069;28;20184;-84
2022/05/18 18:10:39;;;;;;;5.27;1.60;;;;;;;;;;5028854;28;20199;-83
2022/05/18 18:13:45;;;;;;;3.70;1.60;;;;;;;;;;5042220;28;20216;-84
2022/05/18 18:16:52;;;;;;;4.20;1.87;;;;;;;;;;5043102;28;20184;-83
2022/05/18 18:19:58;;;;;;;3.17;1.80;;;;;;;;;;5026856;28;20690;-84
2022/05/18 18:23:03;;;;;;;3.17;1.53;;;;;;;;;;5034390;28;20227;-84
2022/05/18 18:26:07;;;;;;;3.20;2.00;;;;;;;;;;5023310;28;20184;-84
2022/05/18 18:29:12;;;;;;;6.50;1.37;;;;;;;;;;5033587;28;20188;-84
2022/05/18 18:32:16;;;;;;;3.63;1.73;;;;;;;;;;5033579;28;20627;-83
2022/05/18 18:35:21;;;;;;;2.83;1.47;;;;;;;;;;5022216;28;20188;-84
2022/05/18 18:38:31;;;;;;;3.77;1.67;;;;;;;;;;5034309;28;20195;-84
2022/05/18 18:41:41;;;;;;;4.27;1.57;;;;;;;;;;5044395;28;20196;-83
2022/05/18 18:44:46;;;;;;;2.57;1.60;;;;;;;;;;5032570;28;20219;-83
2022/05/18 18:47:50;;;;;;;3.03;1.73;;;;;;;;;;5017535;28;20532;-84
2022/05/18 18:57:46;;;;;;;3.23;1.90;;;;;;;;;;5039119;28;20188;-84
2022/05/18 19:00:50;;;;;;;6.87;1.60;;;;;;;;;;5021881;28;20212;-84
2022/05/18 19:03:54;;;;;;;6.77;1.90;;;;;;;;;;5033324;28;20220;-84
2022/05/18 19:07:06;;;;;;;3.23;1.60;;;;;;;;;;5022108;28;20180;-83
2022/05/18 19:10:17;;;;;;;4.00;1.97;;;;;;;;;;5019494;28;20532;-83
2022/05/18 19:13:22;;;;;;;4.30;1.83;;;;;;;;;;5029826;28;20219;-82
2022/05/18 19:16:26;;;;;;;4.33;1.70;;;;;;;;;;5030062;28;20181;-82
2022/05/18 19:19:30;;;;;;;2.57;1.67;;;;;;;;;;5029512;28;20216;-83